Time;durP1;ratioP1;P1;durP2;ratioP2;P2;SDS_P1;SDS_P2;PMS_P1;PMS_P2;Temp;Humidity;BMP_temperature;BMP_pressure;BME280_temperature;BME280_humidity;BME280_pressure;Samples;Min_cycle;Max_cycle;Signal;HPM_P1;HPM_P2
2021/12/09 00:00:47;;;;;;;;;;;;;;;;;;;;;
2021/12/09 00:03:57;;;;;;;;;;;;;;;21.36;34.32;100447.79;98536;1392;75035;-81
2021/12/09 00:06:45;;;;;;;;;;;;;;;21.36;34.24;100450.30;98357;1395;61516;-81
2021/12/09 00:09:41;;;;;;;;;;;;;;;;;;;;;
2021/12/09 00:12:31;;;;;;;;;;;;;;;;;;;;;
2021/12/09 00:16:22;;;;;;;;;;;;;;;21.35;34.24;100460.90;98903;1386;75013;-81
2021/12/09 00:19:33;;;;;;;;;;;;;;;21.36;34.24;100463.52;98823;1389;61479;-81
2021/12/09 00:22:18;;;;;;;;;;;;;;;21.36;34.34;100458.02;99025;1391;61336;-80
2021/12/09 00:25:14;;;;;;;;;;;;;;;21.36;34.20;100463.02;99109;1383;73616;-81
2021/12/09 00:28:23;;;;;;;;;;;;;;;21.36;34.11;100457.66;98756;1393;76415;-80
2021/12/09 00:31:19;;;;;;;;;;;;;;;;;;;;;
2021/12/09 00:38:19;;;;;;;;;;;;;;;21.36;34.11;100478.57;98570;1396;71575;-81
2021/12/09 00:40:32;;;;;;;;;;;;;;;21.37;34.19;100487.13;98216;1400;74893;-81
2021/12/09 00:43:52;;;;;;;;;;;;;;;;;;;;;
2021/12/09 00:46:47;;;;;;;;;;;;;;;;;;;;;
2021/12/09 00:49:31;;;;;;;;;;;;;;;21.36;34.11;100483.58;97554;1405;74286;-80
2021/12/09 00:52:27;;;;;;;;;;;;;;;;;;;;;
2021/12/09 00:55:22;;;;;;;;;;;;;;;21.36;33.97;100493.80;97354;1410;61476;-81
2021/12/09 01:05:12;;;;;;;;;;;;;;;21.35;34.06;100509.61;97014;1410;77442;-81
2021/12/09 01:08:18;;;;;;;;;;;;;;;21.36;33.89;100509.73;97269;1404;60503;-81
2021/12/09 01:11:03;;;;;;;;;;;;;;;21.36;34.04;100518.34;97584;1403;63319;-80
2021/12/09 01:17:22;;;;;;;;;;;;;;;21.36;33.94;100518.54;97563;1406;76141;-81
2021/12/09 01:20:29;;;;;;;;;;;;;;;;;;;;;
2021/12/09 01:26:49;;;;;;;;;;;;;;;;;;;;;
2021/12/09 01:29:50;;;;;;;;;;;;;;;;;;;;;
2021/12/09 01:33:03;;;;;;;;;;;;;;;21.37;33.84;100521.15;98007;1404;61449;-80
2021/12/09 01:36:09;;;;;;;;;;;;;;;21.37;33.92;100516.48;97792;1406;61746;-79
2021/12/09 01:39:17;;;;;;;;;;;;;;;;;;;;;
2021/12/09 01:42:23;;;;;;;;;;;;;;;;;;;;;
2021/12/09 01:45:31;;;;;;;;;;;;;;;;;;;;;
2021/12/09 01:48:22;;;;;;;;;;;;;;;;;;;;;
2021/12/09 01:51:47;;;;;;;;;;;;;;;21.37;33.69;100527.74;97596;1406;72782;-81
2021/12/09 01:55:02;;;;;;;;;;;;;;;21.36;33.77;100527.42;97905;1403;73611;-80
2021/12/09 01:57:56;;;;;;;;;;;;;;;21.37;33.86;100524.34;98011;1401;61619;-80
2021/12/09 02:01:12;;;;;;;;;;;;;;;;;;;;;
2021/12/09 02:04:18;;;;;;;;;;;;;;;21.37;33.67;100521.47;97927;1399;71475;-80
2021/12/09 02:08:11;;;;;;;;;;;;;;;21.37;33.75;100519.83;98058;1402;72595;-81
2021/12/09 02:10:49;;;;;;;;;;;;;;;21.37;33.69;100513.95;97709;1407;61507;-80
2021/12/09 02:13:50;;;;;;;;;;;;;;;;;;;;;
2021/12/09 02:17:17;;;;;;;;;;;;;;;21.37;33.72;100510.19;98089;1395;74302;-81
2021/12/09 02:20:44;;;;;;;;;;;;;;;21.37;33.64;100510.16;97712;1401;73703;-80
2021/12/09 02:23:37;;;;;;;;;;;;;;;;;;;;;
2021/12/09 02:29:42;;;;;;;;;;;;;;;;;;;;;
2021/12/09 02:32:40;;;;;;;;;;;;;;;21.37;33.64;100514.13;96876;1411;76195;-81
2021/12/09 02:35:37;;;;;;;;;;;;;;;21.37;33.84;100511.60;96784;1418;61419;-81
2021/12/09 02:38:40;;;;;;;;;;;;;;;;;;;;;
2021/12/09 02:41:40;;;;;;;;;;;;;;;21.37;33.64;100517.54;96716;1416;72882;-81
2021/12/09 02:44:57;;;;;;;;;;;;;;;;;;;;;
2021/12/09 02:48:03;;;;;;;;;;;;;;;21.37;33.60;100520.73;97447;1407;61218;-81
2021/12/09 02:51:03;;;;;;;;;;;;;;;;;;;;;
2021/12/09 02:54:18;;;;;;;;;;;;;;;21.37;33.50;100522.88;97324;1411;70686;-81
2021/12/09 02:57:31;;;;;;;;;;;;;;;21.38;33.67;100532.33;97385;1409;76474;-81
2021/12/09 03:00:46;;;;;;;;;;;;;;;21.37;33.52;100533.27;97436;1409;61662;-81
2021/12/09 03:03:45;;;;;;;;;;;;;;;;;;;;;
2021/12/09 03:07:00;;;;;;;;;;;;;;;21.37;33.49;100534.52;97618;1404;74466;-81
2021/12/09 03:10:52;;;;;;;;;;;;;;;21.37;33.49;100540.98;97978;1398;73675;-80
2021/12/09 03:13:36;;;;;;;;;;;;;;;21.37;33.40;100540.61;97717;1401;61872;-81
2021/12/09 03:16:30;;;;;;;;;;;;;;;21.37;33.48;100550.46;97991;1398;61481;-81
2021/12/09 03:19:39;;;;;;;;;;;;;;;;;;;;;
2021/12/09 03:22:25;;;;;;;;;;;;;;;21.36;33.50;100548.55;98068;1399;75208;-81
2021/12/09 03:25:49;;;;;;;;;;;;;;;21.37;33.51;100553.34;98170;1401;61257;-81
2021/12/09 03:28:52;;;;;;;;;;;;;;;21.37;33.45;100556.38;98359;1395;61741;-81
2021/12/09 03:32:49;;;;;;;;;;;;;;;21.37;33.44;100552.76;98530;1395;74430;-81
2021/12/09 03:35:33;;;;;;;;;;;;;;;21.38;33.44;100550.59;98848;1392;72621;-81
2021/12/09 03:38:36;;;;;;;;;;;;;;;21.37;33.43;100550.44;98807;1392;61504;-81
2021/12/09 03:41:32;;;;;;;;;;;;;;;;;;;;;
2021/12/09 03:47:52;;;;;;;;;;;;;;;21.37;33.25;100558.89;98292;1397;74678;-80
2021/12/09 03:50:52;;;;;;;;;;;;;;;;;;;;;
2021/12/09 03:54:52;;;;;;;;;;;;;;;21.37;33.39;100551.20;98261;1397;61419;-81
2021/12/09 03:57:42;;;;;;;;;;;;;;;;;;;;;
2021/12/09 04:00:30;;;;;;;;;;;;;;;21.37;33.43;100541.13;98464;1398;74506;-81
2021/12/09 04:03:57;;;;;;;;;;;;;;;21.37;33.22;100540.59;98436;1399;61362;-80
2021/12/09 04:06:47;;;;;;;;;;;;;;;21.37;33.36;100543.63;98221;1398;62024;-81
2021/12/09 04:10:38;;;;;;;;;;;;;;;21.37;33.32;100544.39;98253;1401;71633;-80
2021/12/09 04:13:28;;;;;;;;;;;;;;;21.37;33.37;100542.02;98548;1392;75586;-82
2021/12/09 04:16:22;;;;;;;;;;;;;;;;;;;;;
2021/12/09 04:19:23;;;;;;;;;;;;;;;21.37;33.27;100548.47;98393;1401;61839;-80
2021/12/09 04:22:29;;;;;;;;;;;;;;;21.37;33.27;100551.88;98351;1399;73971;-80
2021/12/09 04:26:00;;;;;;;;;;;;;;;21.37;33.32;100545.79;98256;1398;76060;-81
2021/12/09 04:28:48;;;;;;;;;;;;;;;;;;;;;
2021/12/09 04:32:00;;;;;;;;;;;;;;;21.37;33.26;100541.35;98555;1399;61287;-80
2021/12/09 04:34:56;;;;;;;;;;;;;;;21.37;33.30;100542.41;98596;1397;71932;-81
2021/12/09 04:38:05;;;;;;;;;;;;;;;;;;;;;
2021/12/09 04:41:02;;;;;;;;;;;;;;;21.36;33.14;100535.88;98254;1401;61508;-82
2021/12/09 04:44:09;;;;;;;;;;;;;;;21.35;33.25;100539.30;98472;1400;61456;-82
2021/12/09 04:48:00;;;;;;;;;;;;;;;21.35;33.18;100545.05;98339;1396;71742;-80
2021/12/09 04:50:53;;;;;;;;;;;;;;;;;;;;;
2021/12/09 04:54:08;;;;;;;;;;;;;;;21.36;33.13;100558.45;97641;1401;61246;-80
2021/12/09 04:57:21;;;;;;;;;;;;;;;21.35;33.02;100557.40;97550;1408;61394;-80
2021/12/09 05:00:06;;;;;;;;;;;;;;;21.35;33.12;100569.60;97526;1401;73268;-81
2021/12/09 05:03:13;;;;;;;;;;;;;;;21.35;33.06;100573.33;97215;1412;76505;-81
2021/12/09 05:06:37;;;;;;;;;;;;;;;;;;;;;
2021/12/09 05:09:51;;;;;;;;;;;;;;;21.36;33.03;100547.14;97440;1404;61426;-81
2021/12/09 05:12:43;;;;;;;;;;;;;;;21.36;32.97;100542.82;97726;1401;72671;-80
2021/12/09 05:15:54;;;;;;;;;;;;;;;21.34;33.06;100548.58;97286;1411;76846;-80
2021/12/09 05:18:54;;;;;;;;;;;;;;;;;;;;;
2021/12/09 05:21:52;;;;;;;;;;;;;;;;;;;;;
2021/12/09 05:24:59;;;;;;;;;;;;;;;21.21;32.70;100548.77;97399;1410;73118;-81
2021/12/09 05:28:07;;;;;;;;;;;;;;;21.18;32.78;100543.87;97594;1406;74971;-81
2021/12/09 05:34:04;;;;;;;;;;;;;;;21.13;32.67;100570.35;98493;1397;61424;-81
2021/12/09 05:36:50;;;;;;;;;;;;;;;21.10;32.70;100577.33;98553;1398;72794;-81
2021/12/09 05:40:03;;;;;;;;;;;;;;;;;;;;;
2021/12/09 05:43:00;;;;;;;;;;;;;;;;;;;;;
2021/12/09 05:45:41;;;;;;;;;;;;;;;21.04;32.53;100586.74;98573;1390;61550;-78
2021/12/09 05:48:16;;;;;;;;;;;;;;;21.02;32.40;100583.52;98610;1386;72645;-81
2021/12/09 05:51:17;;;;;;;;;;;;;;;20.99;32.33;100583.21;98763;1382;74919;-78
2021/12/09 05:53:55;;;;;;;;;;;;;;;20.96;32.30;100590.08;99531;1376;61286;-78
2021/12/09 05:56:25;;;;;;;;;;;;;;;20.92;32.18;100593.73;100584;1364;61958;-81
2021/12/09 05:59:02;;;;;;;;;;;;;;;20.89;32.11;100597.17;99982;1367;72621;-81
2021/12/09 06:01:28;;;;;;;;;;;;;;;20.85;32.26;100601.59;100201;1359;75064;-79
2021/12/09 06:03:56;;;;;;;;;;;;;;;20.81;32.18;100607.79;100579;1357;61193;-80
2021/12/09 06:06:31;;;;;;;;;;;;;;;20.77;32.23;100609.45;101358;1352;61228;-80
2021/12/09 06:08:59;;;;;;;;;;;;;;;20.74;32.09;100614.52;101437;1354;72784;-79
2021/12/09 06:11:26;;;;;;;;;;;;;;;20.72;32.01;100616.48;101689;1349;74214;-80
2021/12/09 06:13:52;;;;;;;;;;;;;;;20.70;32.00;100622.50;101639;1348;61828;-79
2021/12/09 06:16:24;;;;;;;;;;;;;;;20.71;31.88;100626.70;101314;1350;61407;-78
2021/12/09 06:18:50;;;;;;;;;;;;;;;20.73;31.91;100627.08;101488;1348;73947;-78
2021/12/09 06:21:27;;;;;;;;;;;;;;;;;;;;;
2021/12/09 06:24:13;;;;;;;;;;;;;;;20.80;31.85;100619.13;101397;1351;61353;-79
2021/12/09 06:26:59;;;;;;;;;;;;;;;20.84;31.55;100619.35;101775;1354;61207;-79
2021/12/09 06:29:32;;;;;;;;;;;;;;;20.87;31.54;100623.59;101546;1353;73669;-79
2021/12/09 06:32:14;;;;;;;;;;;;;;;20.87;31.45;100620.39;101699;1348;75205;-79
2021/12/09 06:34:40;;;;;;;;;;;;;;;20.84;31.46;100625.60;101494;1347;61310;-78
2021/12/09 06:37:32;;;;;;;;;;;;;;;20.81;31.44;100627.84;101390;1348;60426;-80
2021/12/09 06:40:05;;;;;;;;;;;;;;;20.79;31.44;100627.24;101393;1351;72876;-79
2021/12/09 06:42:36;;;;;;;;;;;;;;;20.77;31.44;100631.11;101250;1350;74599;-79
2021/12/09 06:45:27;;;;;;;;;;;;;;;20.79;31.34;100646.05;101368;1347;61300;-79
2021/12/09 06:48:21;;;;;;;;;;;;;;;20.79;31.25;100660.85;101100;1353;61060;-79
2021/12/09 06:50:54;;;;;;;;;;;;;;;20.82;31.31;100665.45;101142;1355;74212;-79
2021/12/09 06:53:38;;;;;;;;;;;;;;;;;;;;;
2021/12/09 06:56:08;;;;;;;;;;;;;;;20.86;31.28;100657.66;101147;1353;61461;-80
2021/12/09 06:58:54;;;;;;;;;;;;;;;20.85;31.56;100652.35;101121;1354;61291;-80
2021/12/09 07:01:23;;;;;;;;;;;;;;;20.84;31.51;100656.25;101065;1354;73865;-80
2021/12/09 07:03:58;;;;;;;;;;;;;;;20.80;31.59;100659.21;101257;1353;61294;-82
2021/12/09 07:06:26;;;;;;;;;;;;;;;20.75;31.96;100658.45;101591;1352;61441;-81
2021/12/09 07:08:53;;;;;;;;;;;;;;;20.70;31.82;100670.45;101030;1354;404601;-80
2021/12/09 07:11:20;;;;;;;;;;;;;;;20.64;31.79;100672.09;101384;1357;74224;-80
2021/12/09 07:13:59;;;;;;;;;;;;;;;20.58;31.99;100675.91;101318;1355;74592;-80
2021/12/09 07:16:30;;;;;;;;;;;;;;;20.55;31.84;100682.16;101325;1356;61184;-81
2021/12/09 07:19:00;;;;;;;;;;;;;;;20.57;31.86;100692.95;101328;1355;61450;-80
2021/12/09 07:21:31;;;;;;;;;;;;;;;20.61;31.91;100697.19;101257;1356;73978;-79
2021/12/09 07:24:09;;;;;;;;;;;;;;;20.63;31.71;100697.38;101345;1355;75889;-79
2021/12/09 07:26:45;;;;;;;;;;;;;;;20.62;31.73;100695.83;101569;1355;61404;-79
2021/12/09 07:29:27;;;;;;;;;;;;;;;20.56;31.59;100695.02;101514;1354;61630;-79
2021/12/09 07:31:53;;;;;;;;;;;;;;;20.49;31.70;100699.60;101500;1350;72406;-79
2021/12/09 07:34:29;;;;;;;;;;;;;;;20.47;31.78;100705.46;101408;1348;61551;-79
2021/12/09 07:37:03;;;;;;;;;;;;;;;20.48;31.75;100708.61;101449;1353;61717;-79
2021/12/09 07:39:48;;;;;;;;;;;;;;;20.51;31.68;100713.39;101339;1350;61285;-79
2021/12/09 07:42:34;;;;;;;;;;;;;;;20.55;31.65;100719.03;101025;1356;74802;-79
2021/12/09 07:45:05;;;;;;;;;;;;;;;20.59;31.57;100721.05;101132;1357;61352;-79
2021/12/09 07:47:53;;;;;;;;;;;;;;;20.64;31.60;100710.89;101143;1355;61714;-79
2021/12/09 07:50:33;;;;;;;;;;;;;;;;;;;;;
2021/12/09 07:53:04;;;;;;;;;;;;;;;20.69;31.60;100700.72;101190;1353;72641;-81
2021/12/09 07:55:42;;;;;;;;;;;;;;;20.64;31.74;100707.52;101095;1351;74666;-80
2021/12/09 07:58:11;;;;;;;;;;;;;;;20.56;31.67;100710.04;101309;1358;59858;-81
2021/12/09 08:00:39;;;;;;;;;;;;;;;20.50;31.74;100709.70;101273;1357;61902;-80
2021/12/09 08:03:09;;;;;;;;;;;;;;;20.45;32.02;100707.55;101347;1356;73910;-80
2021/12/09 08:05:45;;;;;;;;;;;;;;;20.42;32.27;100710.65;101306;1357;75017;-80
2021/12/09 08:08:11;;;;;;;;;;;;;;;20.42;32.15;100716.00;101339;1353;61555;-80
2021/12/09 08:10:37;;;;;;;;;;;;;;;20.42;32.18;100714.55;101410;1357;59338;-80
2021/12/09 08:13:05;;;;;;;;;;;;;;;20.43;32.07;100717.89;101268;1354;61344;-80
2021/12/09 08:15:53;;;;;;;;;;;;;;;20.43;32.05;100728.59;101313;1354;74974;-80
2021/12/09 08:18:30;;;;;;;;;;;;;;;20.45;32.11;100729.92;101006;1359;61430;-80
2021/12/09 08:20:57;;;;;;;;;;;;;;;20.45;31.95;100719.71;101195;1356;61561;-80
2021/12/09 08:23:35;;;;;;;;;;;;;;;20.45;32.09;100716.86;101162;1357;73873;-79
2021/12/09 08:26:21;;;;;;;;;;;;;;;20.42;32.05;100718.48;101315;1356;75915;-80
2021/12/09 08:28:50;;;;;;;;;;;;;;;20.39;32.16;100724.95;101274;1356;60253;-79
2021/12/09 08:31:21;;;;;;;;;;;;;;;20.38;32.07;100723.79;101159;1356;64447;-78
2021/12/09 08:34:17;;;;;;;;;;;;;;;20.37;32.04;100716.13;101006;1355;72707;-78
2021/12/09 08:37:01;;;;;;;;;;;;;;;;;;;;;
2021/12/09 08:39:32;;;;;;;;;;;;;;;20.43;31.97;100709.30;101013;1355;61309;-79
2021/12/09 08:42:18;;;;;;;;;;;;;;;20.45;31.91;100710.45;101069;1357;61377;-79
2021/12/09 08:45:09;;;;;;;;;;;;;;;20.46;32.00;100712.89;101024;1354;73679;-79
2021/12/09 08:47:46;;;;;;;;;;;;;;;20.48;31.94;100712.89;101113;1355;74887;-79
2021/12/09 08:50:43;;;;;;;;;;;;;;;20.53;31.95;100711.30;101027;1355;61335;-79
2021/12/09 08:53:09;;;;;;;;;;;;;;;20.57;32.01;100711.71;101016;1356;61416;-78
2021/12/09 08:55:55;;;;;;;;;;;;;;;20.57;31.82;100700.64;101190;1353;61301;-79
2021/12/09 08:58:21;;;;;;;;;;;;;;;20.54;32.07;100698.02;101363;1350;75426;-79
2021/12/09 09:00:53;;;;;;;;;;;;;;;20.51;32.11;100696.29;102558;1348;61297;-80
2021/12/09 09:03:19;;;;;;;;;;;;;;;20.44;31.99;100689.26;102496;1351;61621;-80
2021/12/09 09:05:45;;;;;;;;;;;;;;;20.40;32.21;100681.84;102559;1346;59375;-79
2021/12/09 09:08:11;;;;;;;;;;;;;;;20.38;32.31;100682.46;102296;1351;59469;-79
2021/12/09 09:10:37;;;;;;;;;;;;;;;20.40;32.37;100683.94;102416;1350;59261;-80
2021/12/09 09:13:02;;;;;;;;;;;;;;;20.44;32.35;100680.68;101409;1358;59666;-79
2021/12/09 09:15:31;;;;;;;;;;;;;;;20.48;32.33;100680.01;102663;1353;59331;-79
2021/12/09 09:17:57;;;;;;;;;;;;;;;20.49;32.43;100682.48;101570;1347;72596;-79
2021/12/09 09:20:54;;;;;;;;;;;;;;;;;;;;;
2021/12/09 09:23:41;;;;;;;;;;;;;;;20.43;32.27;100676.41;101239;1357;61109;-80
2021/12/09 09:26:13;;;;;;;;;;;;;;;20.40;32.28;100668.20;100958;1356;63099;-79
2021/12/09 09:28:48;;;;;;;;;;;;;;;20.37;32.16;100660.39;100984;1356;72762;-79
2021/12/09 09:31:17;;;;;;;;;;;;;;;20.34;32.18;100657.20;100865;1359;75950;-80
2021/12/09 09:33:52;;;;;;;;;;;;;;;20.29;32.03;100658.14;100969;1356;61374;-80
2021/12/09 09:36:19;;;;;;;;;;;;;;;20.21;32.19;100647.95;101552;1357;61486;-79
2021/12/09 09:38:55;;;;;;;;;;;;;;;;;;;;;
2021/12/09 09:41:45;;;;;;;;;;;;;;;20.08;32.10;100639.51;100941;1357;76290;-80
2021/12/09 09:44:16;;;;;;;;;;;;;;;20.04;32.30;100637.70;100996;1356;61126;-79
2021/12/09 09:46:42;;;;;;;;;;;;;;;19.98;32.17;100636.32;102039;1356;61428;-80
2021/12/09 09:49:08;;;;;;;;;;;;;;;19.94;32.17;100636.74;101780;1358;59783;-80
2021/12/09 09:51:34;;;;;;;;;;;;;;;19.88;32.00;100633.05;101446;1351;60305;-79
2021/12/09 09:54:02;;;;;;;;;;;;;;;19.82;32.08;100628.79;100742;1365;59350;-80
2021/12/09 09:56:28;;;;;;;;;;;;;;;19.68;32.03;100621.23;101054;1356;61476;-80
2021/12/09 09:59:04;;;;;;;;;;;;;;;19.53;32.18;100619.87;100987;1355;72854;-79
2021/12/09 10:01:30;;;;;;;;;;;;;;;19.50;32.31;100610.98;101000;1356;76196;-80
2021/12/09 10:04:19;;;;;;;;;;;;;;;19.55;32.51;100606.88;101008;1359;61140;-80
2021/12/09 10:06:44;;;;;;;;;;;;;;;19.57;32.59;100603.48;101477;1350;60345;-80
2021/12/09 10:09:10;;;;;;;;;;;;;;;19.53;32.75;100603.80;101098;1353;61419;-79
2021/12/09 10:11:44;;;;;;;;;;;;;;;19.57;32.77;100602.83;100941;1354;61515;-80
2021/12/09 10:14:28;;;;;;;;;;;;;;;19.58;32.85;100606.83;101049;1353;61355;-79
2021/12/09 10:17:01;;;;;;;;;;;;;;;19.58;32.84;100602.73;101015;1356;61515;-80
2021/12/09 10:19:40;;;;;;;;;;;;;;;;;;;;;
2021/12/09 10:22:20;;;;;;;;;;;;;;;19.52;32.86;100577.29;101183;1354;74437;-80
2021/12/09 10:24:47;;;;;;;;;;;;;;;19.47;32.87;100574.77;101967;1353;60336;-79
2021/12/09 10:27:13;;;;;;;;;;;;;;;19.49;32.99;100578.58;101314;1354;61205;-79
2021/12/09 10:29:57;;;;;;;;;;;;;;;19.51;32.99;100580.39;101223;1356;73129;-80
2021/12/09 10:32:27;;;;;;;;;;;;;;;19.49;32.84;100586.94;102278;1354;76229;-80
2021/12/09 10:35:18;;;;;;;;;;;;;;;19.52;32.84;100589.96;101234;1357;61615;-79
2021/12/09 10:38:02;;;;;;;;;;;;;;;19.56;32.76;100581.86;101134;1353;61524;-79
2021/12/09 10:40:36;;;;;;;;;;;;;;;19.61;32.76;100579.88;102103;1356;74516;-80
2021/12/09 10:43:03;;;;;;;;;;;;;;;19.69;32.83;100583.64;102050;1356;60334;-80
2021/12/09 10:45:30;;;;;;;;;;;;;;;19.78;32.84;100571.92;102042;1354;59447;-80
2021/12/09 10:48:00;;;;;;;;;;;;;;;19.89;32.80;100559.25;102058;1356;59468;-80
2021/12/09 10:50:33;;;;;;;;;;;;;;;20.00;32.84;100561.69;102173;1351;73781;-80
2021/12/09 10:53:17;;;;;;;;;;;;;;;20.09;32.89;100569.80;101345;1354;75502;-81
2021/12/09 10:55:54;;;;;;;;;;;;;;;20.10;32.68;100574.38;100984;1356;61273;-80
2021/12/09 10:58:21;;;;;;;;;;;;;;;20.04;32.92;100575.54;101927;1355;61755;-80
2021/12/09 11:00:52;;;;;;;;;;;;;;;20.00;32.85;100570.61;101903;1356;73935;-80
2021/12/09 11:03:24;;;;;;;;;;;;;;;19.92;32.83;100572.77;101995;1353;74748;-80
2021/12/09 11:06:03;;;;;;;;;;;;;;;19.84;32.99;100574.41;102178;1354;59644;-80
2021/12/09 11:08:30;;;;;;;;;;;;;;;19.83;33.07;100575.00;102204;1358;61052;-81
2021/12/09 11:10:59;;;;;;;;;;;;;;;19.83;33.00;100565.54;101846;1357;74048;-81
2021/12/09 11:13:27;;;;;;;;;;;;;;;19.84;32.97;100572.63;102106;1354;76033;-81
2021/12/09 11:15:57;;;;;;;;;;;;;;;19.84;32.87;100568.19;102068;1358;60161;-81
2021/12/09 11:18:30;;;;;;;;;;;;;;;19.87;33.33;100566.89;102124;1356;62412;-81
2021/12/09 11:20:56;;;;;;;;;;;;;;;19.91;33.40;100571.61;102172;1353;73214;-80
2021/12/09 11:23:29;;;;;;;;;;;;;;;19.95;33.56;100573.46;101561;1357;61499;-81
2021/12/09 11:25:58;;;;;;;;;;;;;;;20.01;33.49;100575.52;102254;1354;61327;-81
2021/12/09 11:28:26;;;;;;;;;;;;;;;20.08;33.54;100577.73;101131;1363;60249;-81
2021/12/09 11:31:12;;;;;;;;;;;;;;;20.13;33.43;100579.35;101850;1354;72676;-81
2021/12/09 11:33:43;;;;;;;;;;;;;;;20.18;33.50;100569.14;101403;1354;74878;-79
2021/12/09 11:36:19;;;;;;;;;;;;;;;20.24;33.43;100561.39;101293;1357;61193;-79
2021/12/09 11:39:06;;;;;;;;;;;;;;;20.29;33.54;100551.60;101247;1357;61209;-79
2021/12/09 11:42:03;;;;;;;;;;;;;;;20.34;33.34;100556.92;101322;1353;72061;-80
2021/12/09 11:44:32;;;;;;;;;;;;;;;20.38;33.50;100562.02;102085;1353;75698;-79
2021/12/09 11:47:04;;;;;;;;;;;;;;;20.41;33.48;100565.92;101057;1356;61341;-80
2021/12/09 11:49:56;;;;;;;;;;;;;;;20.39;33.32;100559.98;101222;1356;61310;-80
2021/12/09 11:52:28;;;;;;;;;;;;;;;20.37;33.40;100553.85;101641;1349;71514;-80
2021/12/09 11:55:13;;;;;;;;;;;;;;;20.34;33.31;100543.03;101504;1350;74939;-81
2021/12/09 11:57:49;;;;;;;;;;;;;;;20.19;33.11;100536.05;101876;1346;60544;-80
2021/12/09 12:11:38;;;;;;;;;;;;;;;;;;;;;
2021/12/09 12:14:14;;;;;;;;;;;;;;;19.51;33.20;100532.69;101520;1347;73964;-79
2021/12/09 12:17:08;;;;;;;;;;;;;;;19.49;33.37;100526.29;101385;1347;75487;-79
2021/12/09 12:20:08;;;;;;;;;;;;;;;19.35;33.34;100528.09;102602;1348;61846;-80
2021/12/09 12:23:02;;;;;;;;;;;;;;;19.33;33.27;100531.80;102603;1348;62062;-80
2021/12/09 12:33:47;;;;;;;;;;;;;;;19.06;33.38;100524.01;101293;1344;61262;-80
2021/12/09 12:37:03;;;;;;;;;;;;;;;19.14;33.57;100522.35;102548;1345;74402;-80
2021/12/09 12:39:48;;;;;;;;;;;;;;;19.23;33.68;100516.77;102605;1347;74427;-79
2021/12/09 12:42:19;;;;;;;;;;;;;;;19.33;33.71;100512.73;102473;1346;61352;-80
2021/12/09 12:45:04;;;;;;;;;;;;;;;19.42;33.89;100508.85;102526;1349;60400;-79
2021/12/09 12:47:43;;;;;;;;;;;;;;;19.49;33.72;100517.48;102445;1347;74247;-80
2021/12/09 12:50:09;;;;;;;;;;;;;;;19.53;33.82;100509.34;102415;1345;75047;-80
2021/12/09 12:52:35;;;;;;;;;;;;;;;19.55;33.73;100505.67;102384;1348;59676;-80
2021/12/09 12:55:14;;;;;;;;;;;;;;;19.42;33.44;100504.97;102535;1348;59599;-81
2021/12/09 12:57:43;;;;;;;;;;;;;;;19.10;33.32;100513.38;102397;1350;73897;-80
2021/12/09 13:00:30;;;;;;;;;;;;;;;19.01;33.51;100509.70;102606;1348;73623;-80
2021/12/09 13:10:45;;;;;;;;;;;;;;;18.80;33.52;100552.79;102145;1353;59532;-79
2021/12/09 13:13:19;;;;;;;;;;;;;;;18.90;34.13;100549.10;102205;1358;60490;-80
2021/12/09 13:16:14;;;;;;;;;;;;;;;19.04;34.32;100541.77;101392;1354;61651;-80
2021/12/09 13:18:48;;;;;;;;;;;;;;;19.22;34.58;100541.98;102278;1354;74344;-79
2021/12/09 13:21:35;;;;;;;;;;;;;;;19.40;34.92;100542.20;102300;1354;74822;-80
2021/12/09 13:24:40;;;;;;;;;;;;;;;19.58;35.24;100536.52;101791;1354;61388;-79
2021/12/09 13:31:23;;;;;;;;;;;;;;;;;;;;;
2021/12/09 13:34:16;;;;;;;;;;;;;;;19.95;35.42;100549.16;101355;1360;75341;-79
2021/12/09 13:37:26;;;;;;;;;;;;;;;;;;;;;
2021/12/09 13:46:53;;;;;;;;;;;;;;;;;;;;;
2021/12/09 13:55:45;;;;;;;;;;;;;;;19.75;34.38;100550.31;100430;1364;72796;-79
2021/12/09 13:58:11;;;;;;;;;;;;;;;19.71;34.36;100543.79;100481;1361;74944;-79
2021/12/09 14:00:51;;;;;;;;;;;;;;;19.65;34.16;100541.42;100678;1363;61156;-79
2021/12/09 14:03:28;;;;;;;;;;;;;;;19.60;34.09;100539.22;100979;1365;61284;-80
2021/12/09 14:06:00;;;;;;;;;;;;;;;19.61;34.07;100533.30;100890;1362;72992;-79
2021/12/09 14:08:40;;;;;;;;;;;;;;;19.65;34.16;100526.77;102313;1360;75003;-79
2021/12/09 14:11:40;;;;;;;;;;;;;;;19.71;34.11;100522.61;101386;1357;60354;-79
2021/12/09 14:14:17;;;;;;;;;;;;;;;19.78;34.16;100507.84;101001;1360;61396;-78
2021/12/09 14:17:27;;;;;;;;;;;;;;;;;;;;;
2021/12/09 14:20:27;;;;;;;;;;;;;;;19.91;33.94;100493.67;101184;1357;74584;-80
2021/12/09 14:23:57;;;;;;;;;;;;;;;19.97;33.90;100507.74;101156;1358;61335;-79
2021/12/09 14:26:22;;;;;;;;;;;;;;;20.04;33.80;100511.70;101106;1358;61955;-79
2021/12/09 14:30:14;;;;;;;;;;;;;;;20.09;33.84;100503.36;101145;1363;72801;-79
2021/12/09 14:33:05;;;;;;;;;;;;;;;20.14;33.77;100499.41;101452;1358;73590;-80
2021/12/09 14:36:14;;;;;;;;;;;;;;;20.18;33.71;100497.55;101552;1354;61065;-81
2021/12/09 14:42:35;;;;;;;;;;;;;;;20.25;33.60;100524.67;101503;1354;71765;-79
2021/12/09 14:46:14;;;;;;;;;;;;;;;;;;;;;
2021/12/09 14:49:08;;;;;;;;;;;;;;;20.33;33.61;100530.96;100629;1372;61524;-81
2021/12/09 14:52:13;;;;;;;;;;;;;;;;;;;;;
2021/12/09 14:55:18;;;;;;;;;;;;;;;;;;;;;
2021/12/09 14:58:24;;;;;;;;;;;;;;;;;;;;;
2021/12/09 15:01:16;;;;;;;;;;;;;;;20.42;33.59;100499.86;99504;1375;61552;-80
2021/12/09 15:07:45;;;;;;;;;;;;;;;;;;;;;
2021/12/09 15:10:18;;;;;;;;;;;;;;;20.49;33.66;100508.69;98816;1387;75035;-79
2021/12/09 15:13:15;;;;;;;;;;;;;;;;;;;;;
2021/12/09 15:15:59;;;;;;;;;;;;;;;;;;;;;
2021/12/09 15:18:49;;;;;;;;;;;;;;;20.54;33.57;100508.31;98729;1392;73986;-79
2021/12/09 15:22:09;;;;;;;;;;;;;;;20.55;33.66;100504.11;98993;1386;76161;-80
2021/12/09 15:25:31;;;;;;;;;;;;;;;;;;;;;
2021/12/09 15:28:36;;;;;;;;;;;;;;;20.58;33.67;100502.44;99193;1380;61455;-79
2021/12/09 15:31:20;;;;;;;;;;;;;;;20.59;33.65;100507.17;99274;1377;73901;-80
2021/12/09 15:34:37;;;;;;;;;;;;;;;;;;;;;
2021/12/09 15:37:26;;;;;;;;;;;;;;;20.64;33.65;100511.74;98705;1391;61808;-79
2021/12/09 15:39:59;;;;;;;;;;;;;;;20.64;33.72;100515.25;98879;1391;61631;-79
2021/12/09 15:43:04;;;;;;;;;;;;;;;20.65;33.70;100512.73;98945;1390;75638;-80
2021/12/09 15:52:24;;;;;;;;;;;;;;;;;;;;;
2021/12/09 15:55:36;;;;;;;;;;;;;;;20.68;33.71;100487.83;99244;1388;71125;-82
2021/12/09 15:58:13;;;;;;;;;;;;;;;;;;;;;
2021/12/09 16:02:04;;;;;;;;;;;;;;;20.68;33.77;100474.93;99279;1389;61947;-81
2021/12/09 16:08:09;;;;;;;;;;;;;;;;;;;;;
2021/12/09 16:11:19;;;;;;;;;;;;;;;;;;;;;
2021/12/09 16:14:02;;;;;;;;;;;;;;;20.71;33.85;100472.77;98246;1402;61710;-80
2021/12/09 16:17:53;;;;;;;;;;;;;;;20.72;33.80;100471.83;98617;1392;61498;-80
2021/12/09 16:20:26;;;;;;;;;;;;;;;20.72;33.85;100471.42;98653;1398;73158;-81
2021/12/09 16:23:33;;;;;;;;;;;;;;;20.73;33.88;100456.48;98608;1396;73674;-81
2021/12/09 16:26:50;;;;;;;;;;;;;;;;;;;;;
2021/12/09 16:30:04;;;;;;;;;;;;;;;;;;;;;
2021/12/09 16:33:40;;;;;;;;;;;;;;;20.74;33.97;100437.66;98707;1396;72737;-81
2021/12/09 16:36:38;;;;;;;;;;;;;;;;;;;;;
2021/12/09 16:39:33;;;;;;;;;;;;;;;20.76;34.02;100435.20;98654;1396;61248;-81
2021/12/09 16:42:28;;;;;;;;;;;;;;;20.77;34.05;100436.39;98791;1395;61533;-81
2021/12/09 16:45:35;;;;;;;;;;;;;;;;;;;;;
2021/12/09 16:48:51;;;;;;;;;;;;;;;;;;;;;
2021/12/09 16:52:12;;;;;;;;;;;;;;;20.79;33.93;100441.08;99451;1388;61382;-81
2021/12/09 17:01:14;;;;;;;;;;;;;;;20.80;34.05;100427.71;98688;1393;73651;-80
2021/12/09 17:04:11;;;;;;;;;;;;;;;20.80;34.03;100412.35;98718;1393;61316;-80
2021/12/09 17:07:38;;;;;;;;;;;;;;;20.80;34.07;100409.84;98614;1398;61778;-81
2021/12/09 17:10:29;;;;;;;;;;;;;;;20.80;34.08;100419.67;98311;1400;73765;-80
2021/12/09 17:13:31;;;;;;;;;;;;;;;;;;;;;
2021/12/09 17:17:02;;;;;;;;;;;;;;;;;;;;;
2021/12/09 17:19:52;;;;;;;;;;;;;;;20.83;34.11;100459.71;97577;1405;61253;-81
2021/12/09 17:22:58;;;;;;;;;;;;;;;20.84;34.17;100468.90;97605;1407;70652;-80
2021/12/09 17:26:14;;;;;;;;;;;;;;;;;;;;;
2021/12/09 17:29:20;;;;;;;;;;;;;;;20.85;34.26;100471.92;97533;1406;61878;-80